Airfield :
LOGIN :

Register | Disclaimer

   EN    FR    IT 

 










Legend :    VFR   Marginal VFR   IFR   Intensive IFR   Very Intensive IFR
Visi :
Ceiling :
>= 8 km
>= 3000ft
5 to 8 km
1000 to 3000 ft
1500m to 5 km
500 to 1000 ft
800 to 1500m
200 to 500 ft
< 800m
< 200 ft
Symbols :   Thunderstorms  Fog  Heavy snow  Heavy precipitations  Wind > 20 kt
SIGMETs :     Misc.  Thunderstorms  Icing  Turbulence  Mountain Waves  Volcanic Ashes







- Airport Elevation : 313 ft
- IATA code : LEH
- Download approach charts


LFOH - Le Havre Octeville

CURRENT METAR :
  • 220800Z AUTO 18009KT CAVOK 14/09 Q1022 TEMPO 4000 RA

EXPIRED METARs :
  • 220730Z AUTO 18007KT 150V210 9999 -RA FEW037 SCT096 14/10 Q1022 TEMPO 4000 RA
  • 220700Z AUTO 19007KT 9999 FEW025 OVC090 14/10 Q1022 TEMPO 4000 RA
  • 220630Z AUTO 19007KT 160V220 9999 FEW025 BKN096 BKN110 14/09 Q1021 TEMPO 4000 RA
  • 220600Z AUTO 20009KT 9999 FEW020 BKN027 OVC100 14/09 Q1022 TEMPO 4000 RA

TAF TAF LFOH
Valid from the 22 at 06:00 until the 23 at 06:00 UTC


220500Z 2206/2306 23012KT 9999 BKN030
TEMPO 2206/2306 4000 RA
BECMG 2213/2215 12013KT
PROB40
TEMPO 2218/2306 14020G30KT 1500 RADZ OVC002
BECMG 2220/2224 24020G30KT
ATIS : +33 2 35 54 64 93
No reported NOTAMs for that airfield.
1 SIGMET reported for the Paris FIR (LFFF) :
 
Severe icing
LFFF SIGMET 1 VALID 220630/221000 LFPW
LFFF PARIS FIR/UIR SEV ICE FCST WI N4845 W00015 - N5000 W00015 - N5030 E00030 - N4930 E00115 - N4845 W00015 FL080/200 MOV E 35KT NC=



MET'MAP, your aeronautical weather chart ! - Copyright ORBIFLY December 2007 - Disclaimer

ORBIFLY MET'MAP TEAM :

Programming & Development : Alexandra Zaïnal
Concept & Development : Baudouin d'Aumeries
Co-Development & Prog : Marc-Olivier Méhu
Technical & hardware support : Manuel Goepfert

Contact : metmap@orbifly.com




SOURCES & CREDITS :

   NOAA